Time;durP1;ratioP1;P1;durP2;ratioP2;P2;SDS_P1;SDS_P2;PMS_P1;PMS_P2;Temp;Humidity;BMP_temperature;BMP_pressure;BME280_temperature;BME280_humidity;BME280_pressure;Samples;Min_cycle;Max_cycle;Signal;HPM_P1;HPM_P2
2024/01/01 00:00:24;;;;;;;14.93;5.45;;;;;;;-143.54;100.00;59916.91;5073967;28;20016;-78
2024/01/01 00:02:50;;;;;;;15.05;4.18;;;;;;;-143.54;100.00;59916.91;5078650;28;20115;-78
2024/01/01 00:05:15;;;;;;;18.52;3.30;;;;;;;-143.54;100.00;59916.91;5076749;28;20028;-78
2024/01/01 00:07:41;;;;;;;12.38;4.03;;;;;;;-143.54;100.00;59916.91;5079921;28;20491;-78
2024/01/01 00:10:06;;;;;;;9.35;3.47;;;;;;;-143.54;100.00;59916.91;5077436;28;20028;-78
2024/01/01 00:12:33;;;;;;;6.40;2.50;;;;;;;-143.54;100.00;59916.91;5076375;28;20054;-78
2024/01/01 00:14:59;;;;;;;4.22;1.80;;;;;;;-143.54;100.00;59916.91;5077296;28;20069;-78
2024/01/01 00:17:25;;;;;;;7.30;2.10;;;;;;;-143.54;100.00;59916.91;5079443;28;20024;-78
2024/01/01 00:19:51;;;;;;;5.10;1.77;;;;;;;-143.54;100.00;59916.91;5074757;28;20478;-78
2024/01/01 00:22:16;;;;;;;8.10;2.53;;;;;;;-143.54;100.00;59916.91;5074173;28;20038;-78
2024/01/01 00:24:41;;;;;;;8.07;2.42;;;;;;;-143.54;100.00;59916.91;5076888;28;20032;-78
2024/01/01 00:27:07;;;;;;;6.93;2.33;;;;;;;-143.54;100.00;59916.91;5081245;28;20033;-78
2024/01/01 00:29:32;;;;;;;8.77;2.50;;;;;;;-143.54;100.00;59916.91;5075648;28;20058;-78
2024/01/01 00:31:57;;;;;;;10.57;2.60;;;;;;;-143.54;100.00;59916.91;5081037;28;20460;-79
2024/01/01 00:34:22;;;;;;;11.65;2.88;;;;;;;-143.54;100.00;59916.91;5074473;28;20100;-78
2024/01/01 00:36:48;;;;;;;7.75;3.53;;;;;;;-143.54;100.00;59916.91;5078798;28;20578;-78
2024/01/01 00:39:14;;;;;;;10.40;4.25;;;;;;;-143.54;100.00;59916.91;5072976;28;20031;-78
2024/01/01 00:41:39;;;;;;;6.88;3.60;;;;;;;-143.54;100.00;59916.91;5080238;28;20036;-79
2024/01/01 00:44:04;;;;;;;7.03;3.20;;;;;;;-143.54;100.00;59916.91;5074865;28;20066;-78
2024/01/01 00:46:30;;;;;;;9.43;2.92;;;;;;;-143.54;100.00;59916.91;5075968;28;20043;-78
2024/01/01 00:48:56;;;;;;;5.68;2.40;;;;;;;-143.54;100.00;59916.91;5070733;28;20024;-78
2024/01/01 00:51:21;;;;;;;7.47;2.83;;;;;;;-143.54;100.00;59916.91;5078338;28;20088;-79
2024/01/01 00:53:47;;;;;;;9.95;3.30;;;;;;;-143.54;100.00;59916.91;5073481;28;20028;-78
2024/01/01 00:56:12;;;;;;;6.35;3.35;;;;;;;-143.54;100.00;59916.91;5074160;28;20032;-79
2024/01/01 00:58:37;;;;;;;6.78;3.13;;;;;;;-143.54;100.00;59916.91;5073355;28;20275;-78
2024/01/01 01:01:03;;;;;;;12.75;3.63;;;;;;;-143.54;100.00;59916.91;5069558;28;20020;-78
2024/01/01 01:03:29;;;;;;;12.25;4.00;;;;;;;-143.54;100.00;59916.91;5075404;28;20388;-78
2024/01/01 01:05:54;;;;;;;11.63;4.03;;;;;;;-143.54;100.00;59916.91;5072659;28;20024;-78
2024/01/01 01:08:20;;;;;;;13.18;4.35;;;;;;;-143.54;100.00;59916.91;5072326;28;20031;-78
2024/01/01 01:10:45;;;;;;;9.18;4.13;;;;;;;-143.54;100.00;59916.91;5076541;28;20024;-78
2024/01/01 01:13:11;;;;;;;11.75;4.85;;;;;;;-143.54;100.00;59916.91;5078953;28;20539;-78
2024/01/01 01:15:36;;;;;;;11.80;4.53;;;;;;;-143.54;100.00;59916.91;5069623;28;20033;-78
2024/01/01 01:18:01;;;;;;;8.73;3.80;;;;;;;-143.54;100.00;59916.91;5078456;28;20094;-78
2024/01/01 01:20:27;;;;;;;10.93;3.97;;;;;;;-143.54;100.00;59916.91;5074818;28;20055;-79
2024/01/01 01:22:52;;;;;;;10.98;3.17;;;;;;;-143.54;100.00;59916.91;5076727;28;20040;-78
2024/01/01 01:25:18;;;;;;;9.88;3.33;;;;;;;-143.54;100.00;59916.91;5076973;28;20024;-78
2024/01/01 01:27:43;;;;;;;10.82;3.33;;;;;;;-143.54;100.00;59916.91;5073587;28;20480;-78
2024/01/01 01:30:09;;;;;;;5.95;2.60;;;;;;;-143.54;100.00;59916.91;5074634;28;20078;-78
2024/01/01 01:32:35;;;;;;;6.65;2.80;;;;;;;-143.54;100.00;59916.91;5080166;28;20024;-78
2024/01/01 01:35:00;;;;;;;7.80;2.22;;;;;;;-143.54;100.00;59916.91;5070783;28;20024;-78
2024/01/01 01:37:26;;;;;;;7.82;2.53;;;;;;;-143.54;100.00;59916.91;5077489;28;20016;-78
2024/01/01 01:39:51;;;;;;;9.57;2.30;;;;;;;-143.54;100.00;59916.91;5071908;28;20035;-79
2024/01/01 01:42:17;;;;;;;6.55;2.72;;;;;;;-143.54;100.00;59916.91;5074016;28;20758;-79
2024/01/01 01:44:42;;;;;;;9.02;2.53;;;;;;;-143.54;100.00;59916.91;5071287;28;20476;-79
2024/01/01 01:47:09;;;;;;;8.55;2.72;;;;;;;-143.54;100.00;59916.91;5076157;28;20020;-79
2024/01/01 01:49:35;;;;;;;10.45;2.83;;;;;;;-143.54;100.00;59916.91;5071060;28;20036;-79
2024/01/01 01:52:03;;;;;;;8.98;2.70;;;;;;;-143.54;100.00;59916.91;5063397;28;20071;-79
2024/01/01 01:54:29;;;;;;;11.43;3.22;;;;;;;-143.54;100.00;59916.91;5073668;28;20024;-79
2024/01/01 01:56:55;;;;;;;13.98;3.40;;;;;;;-143.54;100.00;59916.91;5071258;28;20029;-79
2024/01/01 01:59:22;;;;;;;12.23;3.70;;;;;;;-143.54;100.00;59916.91;5065894;28;20086;-79
2024/01/01 02:01:47;;;;;;;11.73;3.10;;;;;;;-143.54;100.00;59916.91;5076124;28;20119;-80
2024/01/01 02:04:13;;;;;;;11.00;2.95;;;;;;;-143.54;100.00;59916.91;5069915;28;20029;-79
2024/01/01 02:06:39;;;;;;;14.07;2.85;;;;;;;-143.54;100.00;59916.91;5073073;28;20032;-79
2024/01/01 02:09:06;;;;;;;9.38;2.95;;;;;;;-143.54;100.00;59916.91;5073193;28;20017;-79
2024/01/01 02:11:31;;;;;;;10.23;3.35;;;;;;;-143.54;100.00;59916.91;5070112;28;20417;-79
2024/01/01 02:14:11;;;;;;;14.82;2.55;;;;;;;-143.54;100.00;59916.91;5071285;28;20516;-79
2024/01/01 02:16:36;;;;;;;15.52;3.05;;;;;;;-143.54;100.00;59916.91;5073216;28;20021;-79
2024/01/01 02:19:08;;;;;;;12.35;2.63;;;;;;;-143.54;100.00;59916.91;5070492;28;20488;-79
2024/01/01 02:21:34;;;;;;;7.65;2.03;;;;;;;-143.54;100.00;59916.91;5068709;28;20474;-79
2024/01/01 02:23:59;;;;;;;13.63;2.30;;;;;;;-143.54;100.00;59916.91;5077819;28;20111;-79
2024/01/01 02:26:24;;;;;;;15.00;3.35;;;;;;;-143.54;100.00;59916.91;5041249;28;1050493;-79
2024/01/01 02:28:50;;;;;;;8.88;2.70;;;;;;;-143.54;100.00;59916.91;5074473;28;20028;-79
2024/01/01 02:31:15;;;;;;;11.57;2.58;;;;;;;-143.54;100.00;59916.91;5082158;28;20028;-80
2024/01/01 02:33:40;;;;;;;12.13;2.47;;;;;;;-143.54;100.00;59916.91;5071195;28;20036;-79
2024/01/01 02:36:06;;;;;;;16.10;2.67;;;;;;;-143.54;100.00;59916.91;5080715;28;20091;-79
2024/01/01 02:38:31;;;;;;;13.77;3.00;;;;;;;-143.54;100.00;59916.91;5071452;28;20051;-79
2024/01/01 02:40:56;;;;;;;10.30;2.80;;;;;;;-143.54;100.00;59916.91;5077583;28;20078;-79
2024/01/01 02:43:21;;;;;;;10.98;2.88;;;;;;;-143.54;100.00;59916.91;5068074;28;20037;-80
2024/01/01 02:45:47;;;;;;;11.63;2.45;;;;;;;-143.54;100.00;59916.91;5074776;28;20055;-80
2024/01/01 02:48:12;;;;;;;16.17;3.13;;;;;;;-143.54;100.00;59916.91;5077916;28;20108;-80
2024/01/01 02:50:37;;;;;;;10.43;2.63;;;;;;;-143.54;100.00;59916.91;5074838;28;20468;-81
2024/01/01 02:53:03;;;;;;;16.17;3.28;;;;;;;-143.54;100.00;59916.91;5078208;28;20472;-80
2024/01/01 02:55:28;;;;;;;14.57;2.92;;;;;;;-143.54;100.00;59916.91;5067219;28;20080;-80
2024/01/01 02:57:53;;;;;;;13.52;3.05;;;;;;;-143.54;100.00;59916.91;5076070;28;20333;-80
2024/01/01 03:00:19;;;;;;;17.52;2.80;;;;;;;-143.54;100.00;59916.91;5074614;28;20456;-80
2024/01/01 03:02:44;;;;;;;13.30;2.22;;;;;;;-143.54;100.00;59916.91;5076648;28;20031;-80
2024/01/01 03:05:10;;;;;;;16.13;2.80;;;;;;;-143.54;100.00;59916.91;5071872;28;20030;-80
2024/01/01 03:07:35;;;;;;;12.68;3.40;;;;;;;-143.54;100.00;59916.91;5069145;28;20056;-80
2024/01/01 03:10:01;;;;;;;16.67;2.75;;;;;;;-143.54;100.00;59916.91;5070773;28;20040;-80
2024/01/01 03:12:27;;;;;;;10.88;2.80;;;;;;;-143.54;100.00;59916.91;5070724;28;20021;-79
2024/01/01 03:14:52;;;;;;;12.63;2.47;;;;;;;-143.54;100.00;59916.91;5070571;28;20086;-79
2024/01/01 03:17:17;;;;;;;18.70;3.53;;;;;;;-143.54;100.00;59916.91;5069847;28;20453;-79
2024/01/01 03:19:43;;;;;;;19.08;3.00;;;;;;;-143.54;100.00;59916.91;5070595;28;20035;-79
2024/01/01 03:22:08;;;;;;;15.52;3.03;;;;;;;-143.54;100.00;59916.91;5070533;28;20017;-79
2024/01/01 03:24:33;;;;;;;11.43;2.70;;;;;;;-143.54;100.00;59916.91;5071893;28;20044;-79
2024/01/01 03:26:58;;;;;;;18.15;2.90;;;;;;;-143.54;100.00;59916.91;5069937;28;20040;-79
2024/01/01 03:29:24;;;;;;;17.38;2.88;;;;;;;-143.54;100.00;59916.91;5071022;28;20028;-79
2024/01/01 03:31:49;;;;;;;17.08;3.00;;;;;;;-143.54;100.00;59916.91;5071542;28;20032;-79
2024/01/01 03:34:14;;;;;;;16.83;3.17;;;;;;;-143.54;100.00;59916.91;5070453;28;20020;-79
2024/01/01 03:36:39;;;;;;;10.05;2.30;;;;;;;-143.54;100.00;59916.91;5067181;28;20032;-79
2024/01/01 03:39:05;;;;;;;13.93;3.20;;;;;;;-143.54;100.00;59916.91;5070475;28;20107;-79
2024/01/01 03:41:30;;;;;;;13.30;2.80;;;;;;;-143.54;100.00;59916.91;5070534;28;20033;-79
2024/01/01 03:43:56;;;;;;;13.32;2.95;;;;;;;-143.54;100.00;59916.91;5071331;28;20027;-79
2024/01/01 03:46:22;;;;;;;16.38;2.85;;;;;;;-143.54;100.00;59916.91;5074003;28;20134;-79
2024/01/01 03:48:47;;;;;;;19.23;4.05;;;;;;;-143.54;100.00;59916.91;5071434;28;20025;-80
2024/01/01 03:51:13;;;;;;;10.48;2.53;;;;;;;-143.54;100.00;59916.91;5071920;28;20029;-80
2024/01/01 03:53:38;;;;;;;16.73;3.38;;;;;;;-143.54;100.00;59916.91;5073034;28;20032;-79
2024/01/01 03:56:04;;;;;;;13.43;3.22;;;;;;;-143.54;100.00;59916.91;5072283;28;20025;-80
2024/01/01 03:58:29;;;;;;;17.38;2.70;;;;;;;-143.54;100.00;59916.91;5072569;28;20041;-80
2024/01/01 04:00:54;;;;;;;14.02;3.10;;;;;;;-143.54;100.00;59916.91;5070822;28;20021;-80
2024/01/01 04:03:19;;;;;;;14.95;2.83;;;;;;;-143.54;100.00;59916.91;5072831;28;20507;-80
2024/01/01 04:05:45;;;;;;;11.98;2.38;;;;;;;-143.54;100.00;59916.91;5072617;28;20039;-80
2024/01/01 04:08:10;;;;;;;10.23;2.55;;;;;;;-143.54;100.00;59916.91;5073707;28;20019;-80
2024/01/01 04:10:35;;;;;;;10.65;2.92;;;;;;;-143.54;100.00;59916.91;5073032;28;20460;-80
2024/01/01 04:13:01;;;;;;;16.25;2.90;;;;;;;-143.54;100.00;59916.91;5069619;28;20024;-80
2024/01/01 04:15:26;;;;;;;11.35;2.70;;;;;;;-143.54;100.00;59916.91;5072880;28;20031;-80
2024/01/01 04:17:52;;;;;;;9.70;1.85;;;;;;;-143.54;100.00;59916.91;5071842;28;20052;-80
2024/01/01 04:20:17;;;;;;;12.82;2.35;;;;;;;-143.54;100.00;59916.91;5073162;28;20028;-80
2024/01/01 04:22:42;;;;;;;8.43;2.47;;;;;;;-143.54;100.00;59916.91;5072959;28;20384;-80
2024/01/01 04:25:08;;;;;;;11.35;2.50;;;;;;;-143.54;100.00;59916.91;5072163;28;20025;-80
2024/01/01 04:27:34;;;;;;;15.27;3.03;;;;;;;-143.54;100.00;59916.91;5072798;28;20079;-80
2024/01/01 04:30:00;;;;;;;11.68;2.25;;;;;;;-143.54;100.00;59916.91;5073569;28;20468;-80
2024/01/01 04:32:26;;;;;;;10.73;2.50;;;;;;;-143.54;100.00;59916.91;5071972;28;20096;-80
2024/01/01 04:34:51;;;;;;;11.35;2.45;;;;;;;-143.54;100.00;59916.91;5073211;28;20103;-80
2024/01/01 04:37:17;;;;;;;10.57;3.15;;;;;;;-143.54;100.00;59916.91;5072959;28;20103;-80
2024/01/01 04:39:42;;;;;;;11.45;2.63;;;;;;;-143.54;100.00;59916.91;5069123;28;20097;-79
2024/01/01 04:42:07;;;;;;;14.30;2.80;;;;;;;-143.54;100.00;59916.91;5073234;28;20094;-80
2024/01/01 04:44:32;;;;;;;15.40;2.30;;;;;;;-143.54;100.00;59916.91;5072304;28;20033;-80
2024/01/01 04:46:58;;;;;;;12.30;2.40;;;;;;;-143.54;100.00;59916.91;5071927;28;20025;-80
2024/01/01 04:49:23;;;;;;;14.57;2.50;;;;;;;-143.54;100.00;59916.91;5072290;28;20123;-80
2024/01/01 04:51:49;;;;;;;14.52;2.22;;;;;;;-143.54;100.00;59916.91;5071850;28;20043;-80
2024/01/01 04:54:14;;;;;;;16.13;2.50;;;;;;;-143.54;100.00;59916.91;5071848;28;20028;-80
2024/01/01 04:56:39;;;;;;;13.05;2.20;;;;;;;-143.54;100.00;59916.91;5073507;28;20020;-80
2024/01/01 04:59:06;;;;;;;17.67;2.70;;;;;;;-143.54;100.00;59916.91;5076048;28;20487;-80
2024/01/01 05:01:32;;;;;;;9.68;2.13;;;;;;;-143.54;100.00;59916.91;5068107;28;20115;-80
2024/01/01 05:03:57;;;;;;;12.93;2.95;;;;;;;-143.54;100.00;59916.91;5062730;28;20111;-80
2024/01/01 05:06:22;;;;;;;11.60;2.65;;;;;;;-143.54;100.00;59916.91;5063777;28;20024;-80
2024/01/01 05:08:47;;;;;;;13.80;2.85;;;;;;;-143.54;100.00;59916.91;5069918;28;20112;-80
2024/01/01 05:11:13;;;;;;;9.38;2.60;;;;;;;-143.54;100.00;59916.91;5072446;28;20107;-80
2024/01/01 05:13:38;;;;;;;13.05;2.35;;;;;;;-143.54;100.00;59916.91;5071333;28;20476;-80
2024/01/01 05:16:08;;;;;;;8.30;2.08;;;;;;;-143.54;100.00;59916.91;5071067;28;20082;-80
2024/01/01 05:18:33;;;;;;;12.23;2.10;;;;;;;-143.54;100.00;59916.91;5072255;28;20033;-80
2024/01/01 05:20:58;;;;;;;14.20;2.70;;;;;;;-143.54;100.00;59916.91;5072468;28;20082;-80
2024/01/01 05:23:24;;;;;;;11.32;2.65;;;;;;;-143.54;100.00;59916.91;5070488;28;20384;-81
2024/01/01 05:25:49;;;;;;;7.45;1.70;;;;;;;-143.54;100.00;59916.91;5072187;28;20036;-81
2024/01/01 05:28:15;;;;;;;10.38;2.83;;;;;;;-143.54;100.00;59916.91;5070848;28;20399;-78
2024/01/01 05:30:40;;;;;;;7.22;1.73;;;;;;;-143.54;100.00;59916.91;5072047;28;20037;-78
2024/01/01 05:33:05;;;;;;;7.05;2.05;;;;;;;-143.54;100.00;59916.91;5072286;28;20104;-78
2024/01/01 05:35:31;;;;;;;12.55;2.42;;;;;;;-143.54;100.00;59916.91;5068635;28;20568;-78
2024/01/01 05:37:56;;;;;;;11.23;1.90;;;;;;;-143.54;100.00;59916.91;5071757;28;20035;-79
2024/01/01 05:40:22;;;;;;;9.52;2.40;;;;;;;-143.54;100.00;59916.91;5070978;28;20029;-78
2024/01/01 05:42:47;;;;;;;12.15;2.38;;;;;;;-143.54;100.00;59916.91;5071308;28;20435;-79
2024/01/01 05:45:12;;;;;;;7.70;2.17;;;;;;;-143.54;100.00;59916.91;5071638;28;20056;-79
2024/01/01 05:47:38;;;;;;;10.10;2.20;;;;;;;-143.54;100.00;59916.91;5072167;28;20411;-79
2024/01/01 05:50:03;;;;;;;9.68;1.85;;;;;;;-143.54;100.00;59916.91;5070878;28;20031;-78
2024/01/01 05:52:29;;;;;;;10.10;2.38;;;;;;;-143.54;100.00;59916.91;5070995;28;20511;-79
2024/01/01 05:54:54;;;;;;;10.35;2.65;;;;;;;-143.54;100.00;59916.91;5071413;28;20112;-79
2024/01/01 05:57:19;;;;;;;12.80;2.40;;;;;;;-143.54;100.00;59916.91;5070554;28;20059;-78
2024/01/01 05:59:45;;;;;;;12.65;3.30;;;;;;;-143.54;100.00;59916.91;5071809;28;20443;-78
2024/01/01 06:02:10;;;;;;;9.85;2.20;;;;;;;-143.54;100.00;59916.91;5070622;28;20031;-78
2024/01/01 06:04:35;;;;;;;11.50;2.28;;;;;;;-143.54;100.00;59916.91;5066890;28;20024;-78
2024/01/01 06:07:00;;;;;;;9.20;2.17;;;;;;;-143.54;100.00;59916.91;5071607;28;20463;-78
2024/01/01 06:09:26;;;;;;;10.88;2.72;;;;;;;-143.54;100.00;59916.91;5070893;28;20020;-79
2024/01/01 06:11:51;;;;;;;10.93;2.13;;;;;;;-143.54;100.00;59916.91;5062988;28;20074;-78
2024/01/01 06:14:16;;;;;;;7.93;2.00;;;;;;;-143.54;100.00;59916.91;5070684;28;21819;-79
2024/01/01 06:16:44;;;;;;;8.40;2.53;;;;;;;-143.54;100.00;59916.91;5069998;28;20036;-78
2024/01/01 06:19:10;;;;;;;8.55;2.15;;;;;;;-143.54;100.00;59916.91;5065874;28;20039;-79
2024/01/01 06:21:36;;;;;;;9.45;2.22;;;;;;;-143.54;100.00;59916.91;5070807;28;20020;-79
2024/01/01 06:24:01;;;;;;;12.75;2.10;;;;;;;-143.54;100.00;59916.91;5070436;28;20081;-79
2024/01/01 06:26:27;;;;;;;9.25;2.05;;;;;;;-143.54;100.00;59916.91;5069383;28;20477;-79
2024/01/01 06:28:52;;;;;;;8.50;2.03;;;;;;;-143.54;100.00;59916.91;5071549;28;20060;-78
2024/01/01 06:31:17;;;;;;;12.43;2.17;;;;;;;-143.54;100.00;59916.91;5071752;28;20025;-79
2024/01/01 06:33:43;;;;;;;11.13;2.08;;;;;;;-143.54;100.00;59916.91;5070634;28;20032;-80
2024/01/01 06:36:09;;;;;;;6.00;1.95;;;;;;;-143.54;100.00;59916.91;5071555;28;20020;-79
2024/01/01 06:38:36;;;;;;;11.30;2.33;;;;;;;-143.54;100.00;59916.91;5069145;28;20388;-80
2024/01/01 06:41:01;;;;;;;9.70;1.80;;;;;;;-143.54;100.00;59916.91;5070788;28;20021;-80
2024/01/01 06:43:27;;;;;;;9.60;2.33;;;;;;;-143.54;100.00;59916.91;5070200;28;20178;-80
2024/01/01 06:45:52;;;;;;;11.05;2.03;;;;;;;-143.54;100.00;59916.91;5069937;28;20024;-80
2024/01/01 06:48:17;;;;;;;9.52;2.20;;;;;;;-143.54;100.00;59916.91;5070676;28;20024;-80
2024/01/01 06:50:43;;;;;;;9.18;1.73;;;;;;;-143.54;100.00;59916.91;5069920;28;20029;-80
2024/01/01 06:53:08;;;;;;;11.40;1.88;;;;;;;-143.54;100.00;59916.91;5078213;28;20456;-80
2024/01/01 06:55:34;;;;;;;10.88;2.67;;;;;;;-143.54;100.00;59916.91;5076531;28;20056;-80
2024/01/01 06:57:59;;;;;;;10.35;2.42;;;;;;;-143.54;100.00;59916.91;5075823;28;20031;-80
2024/01/01 07:00:24;;;;;;;10.82;2.28;;;;;;;-143.54;100.00;59916.91;5066204;28;20107;-80
2024/01/01 07:02:50;;;;;;;6.78;1.83;;;;;;;-143.54;100.00;59916.91;5071147;28;20375;-79
2024/01/01 07:05:15;;;;;;;8.75;2.05;;;;;;;-143.54;100.00;59916.91;5072843;28;20099;-80
2024/01/01 07:07:41;;;;;;;11.05;2.58;;;;;;;-143.54;100.00;59916.91;5072439;28;20464;-80
2024/01/01 07:10:06;;;;;;;17.73;3.13;;;;;;;-143.54;100.00;59916.91;5068911;28;20024;-80
2024/01/01 07:12:32;;;;;;;11.63;2.45;;;;;;;-143.54;100.00;59916.91;5077470;28;20030;-80
2024/01/01 07:14:57;;;;;;;15.98;3.25;;;;;;;-143.54;100.00;59916.91;5072802;28;20033;-80
2024/01/01 07:17:22;;;;;;;11.02;2.88;;;;;;;-143.54;100.00;59916.91;5075326;28;20034;-80
2024/01/01 07:19:47;;;;;;;13.77;2.45;;;;;;;-143.54;100.00;59916.91;5066465;28;20047;-80
2024/01/01 07:22:13;;;;;;;11.77;2.08;;;;;;;-143.54;100.00;59916.91;5071811;28;20111;-80
2024/01/01 07:24:40;;;;;;;12.02;2.55;;;;;;;-143.54;100.00;59916.91;5080252;28;20119;-80
2024/01/01 07:27:05;;;;;;;9.13;2.13;;;;;;;-143.54;100.00;59916.91;5077339;28;20051;-80
2024/01/01 07:29:31;;;;;;;8.85;2.42;;;;;;;-143.54;100.00;59916.91;5082774;28;20032;-80
2024/01/01 07:31:56;;;;;;;8.98;1.95;;;;;;;-143.54;100.00;59916.91;5081755;28;20008;-80
2024/01/01 07:34:22;;;;;;;11.80;2.33;;;;;;;-143.54;100.00;59916.91;5081118;28;20052;-80
2024/01/01 07:36:50;;;;;;;10.55;2.35;;;;;;;-143.54;100.00;59916.91;5076610;28;20519;-80
2024/01/01 07:39:19;;;;;;;10.75;2.15;;;;;;;-143.54;100.00;59916.91;5064022;28;20082;-80
2024/01/01 07:41:48;;;;;;;11.32;2.50;;;;;;;-143.54;100.00;59916.91;5058764;28;20033;-79
2024/01/01 07:44:14;;;;;;;6.10;2.28;;;;;;;-143.54;100.00;59916.91;5062038;28;20025;-80
2024/01/01 07:46:41;;;;;;;15.18;3.55;;;;;;;-143.54;100.00;59916.91;5069290;28;20149;-80
2024/01/01 07:49:07;;;;;;;9.88;2.33;;;;;;;-143.54;100.00;59916.91;5074028;28;20016;-80
2024/01/01 07:51:33;;;;;;;9.90;2.28;;;;;;;-143.54;100.00;59916.91;5073801;28;20039;-80
2024/01/01 07:53:59;;;;;;;11.98;3.28;;;;;;;-143.54;100.00;59916.91;5064890;28;20025;-80
2024/01/01 07:56:24;;;;;;;9.55;2.10;;;;;;;-143.54;100.00;59916.91;5057983;28;20074;-81
2024/01/01 07:58:52;;;;;;;7.40;2.17;;;;;;;-143.54;100.00;59916.91;5063944;28;20434;-81
2024/01/01 08:01:18;;;;;;;11.10;2.47;;;;;;;-143.54;100.00;59916.91;5072572;28;20028;-80
2024/01/01 08:03:43;;;;;;;8.27;2.40;;;;;;;-143.54;100.00;59916.91;5077219;28;20060;-79
2024/01/01 08:06:08;;;;;;;11.77;3.03;;;;;;;-143.54;100.00;59916.91;5072002;28;20040;-79
2024/01/01 08:08:34;;;;;;;10.02;2.30;;;;;;;-143.54;100.00;59916.91;5075588;28;20024;-79
2024/01/01 08:10:59;;;;;;;16.13;3.38;;;;;;;-143.54;100.00;59916.91;5070136;28;20452;-79
2024/01/01 08:13:26;;;;;;;8.70;2.58;;;;;;;-143.54;100.00;59916.91;5068493;28;20555;-79
2024/01/01 08:15:52;;;;;;;13.48;2.80;;;;;;;-143.54;100.00;59916.91;5076630;28;20047;-79
2024/01/01 08:18:17;;;;;;;8.30;2.17;;;;;;;-143.54;100.00;59916.91;5071514;28;20165;-79
2024/01/01 08:20:43;;;;;;;12.52;2.53;;;;;;;-143.54;100.00;59916.91;5081226;28;20016;-79
2024/01/01 08:23:09;;;;;;;10.23;2.20;;;;;;;-143.54;100.00;59916.91;5072767;28;20028;-79
2024/01/01 08:25:34;;;;;;;16.55;2.70;;;;;;;-143.54;100.00;59916.91;5077627;28;20039;-79
2024/01/01 08:27:59;;;;;;;13.32;2.90;;;;;;;-143.54;100.00;59916.91;5085053;28;20507;-79
2024/01/01 08:30:25;;;;;;;10.35;2.33;;;;;;;-143.54;100.00;59916.91;5075788;28;20035;-79
2024/01/01 08:32:50;;;;;;;12.13;2.70;;;;;;;-143.54;100.00;59916.91;5082491;28;20034;-79
2024/01/01 08:35:15;;;;;;;7.82;2.33;;;;;;;-143.54;100.00;59916.91;5075278;28;20036;-79
2024/01/01 08:37:42;;;;;;;13.57;3.15;;;;;;;-143.54;100.00;59916.91;5079652;28;20024;-79
2024/01/01 08:40:09;;;;;;;11.20;3.03;;;;;;;-143.54;100.00;59916.91;5067442;28;20032;-79
2024/01/01 08:42:35;;;;;;;19.67;3.58;;;;;;;-143.54;100.00;59916.91;5079363;28;20087;-79
2024/01/01 08:45:02;;;;;;;13.88;3.20;;;;;;;-143.54;100.00;59916.91;5075918;28;20119;-79
2024/01/01 08:47:27;;;;;;;16.75;3.30;;;;;;;-143.54;100.00;59916.91;5077246;28;20506;-80
2024/01/01 08:49:53;;;;;;;11.75;2.80;;;;;;;-143.54;100.00;59916.91;5082189;28;20048;-79
2024/01/01 08:52:18;;;;;;;13.63;3.50;;;;;;;-143.54;100.00;59916.91;5073616;28;20069;-79
2024/01/01 08:54:43;;;;;;;11.48;3.20;;;;;;;-143.54;100.00;59916.91;5082027;28;21333;-79
2024/01/01 08:57:09;;;;;;;13.90;3.28;;;;;;;-143.54;100.00;59916.91;5077503;28;20081;-79
2024/01/01 08:59:34;;;;;;;14.10;2.78;;;;;;;-143.54;100.00;59916.91;5070443;28;20503;-79
2024/01/01 09:01:59;;;;;;;13.43;2.92;;;;;;;-143.54;100.00;59916.91;5079804;28;20032;-79
2024/01/01 09:04:24;;;;;;;16.17;2.63;;;;;;;-143.54;100.00;59916.91;5070385;28;20123;-79
2024/01/01 09:06:50;;;;;;;11.98;3.35;;;;;;;-143.54;100.00;59916.91;5078255;28;20033;-79
2024/01/01 09:09:15;;;;;;;12.20;3.08;;;;;;;-143.54;100.00;59916.91;5072073;28;20027;-79
2024/01/01 09:11:40;;;;;;;19.10;3.00;;;;;;;-143.54;100.00;59916.91;5078135;28;20039;-79
2024/01/01 09:14:05;;;;;;;12.73;2.63;;;;;;;-143.54;100.00;59916.91;5069837;28;20444;-80
2024/01/01 09:16:31;;;;;;;13.40;3.30;;;;;;;-143.54;100.00;59916.91;5074468;28;20039;-79
2024/01/01 09:18:59;;;;;;;12.73;2.80;;;;;;;-143.54;100.00;59916.91;5076213;28;20035;-79
2024/01/01 09:21:24;;;;;;;12.10;3.13;;;;;;;-143.54;100.00;59916.91;5070159;28;20036;-80
2024/01/01 09:23:50;;;;;;;15.85;3.20;;;;;;;-143.54;100.00;59916.91;5072075;28;20025;-79
2024/01/01 09:26:16;;;;;;;13.40;3.72;;;;;;;-143.54;100.00;59916.91;5066764;28;20047;-80
2024/01/01 09:28:41;;;;;;;16.55;3.33;;;;;;;-143.54;100.00;59916.91;5065881;28;20032;-80
2024/01/01 09:31:06;;;;;;;11.93;3.20;;;;;;;-143.54;100.00;59916.91;5072466;28;20380;-80
2024/01/01 09:33:32;;;;;;;14.02;2.88;;;;;;;-143.54;100.00;59916.91;5070629;28;20530;-80
2024/01/01 09:35:57;;;;;;;15.80;3.15;;;;;;;-143.54;100.00;59916.91;5071459;28;20017;-79
2024/01/01 09:38:23;;;;;;;18.48;3.25;;;;;;;-143.54;100.00;59916.91;5070535;28;20021;-79
2024/01/01 09:40:48;;;;;;;16.30;3.53;;;;;;;-143.54;100.00;59916.91;5068252;28;20032;-81
2024/01/01 09:43:17;;;;;;;20.48;3.17;;;;;;;-143.54;100.00;59916.91;5067233;28;20051;-78
2024/01/01 09:45:43;;;;;;;17.05;3.17;;;;;;;-143.54;100.00;59916.91;5069230;28;20036;-78
2024/01/01 09:48:09;;;;;;;15.98;3.33;;;;;;;-143.54;100.00;59916.91;5064217;28;20368;-79
2024/01/01 09:50:34;;;;;;;14.45;2.90;;;;;;;-143.54;100.00;59916.91;5062077;28;20029;-79
2024/01/01 09:53:00;;;;;;;18.85;3.80;;;;;;;-143.54;100.00;59916.91;5071646;28;20025;-79
2024/01/01 09:55:25;;;;;;;10.00;3.20;;;;;;;-143.54;100.00;59916.91;5070733;28;20490;-79
2024/01/01 09:57:51;;;;;;;16.55;3.42;;;;;;;-143.54;100.00;59916.91;5071145;28;20468;-79
2024/01/01 10:00:23;;;;;;;14.48;3.22;;;;;;;-143.54;100.00;59916.91;5064712;28;20031;-79
2024/01/01 10:02:48;;;;;;;12.05;3.28;;;;;;;-143.54;100.00;59916.91;5070921;28;20048;-79
2024/01/01 10:05:15;;;;;;;9.68;2.83;;;;;;;-143.54;100.00;59916.91;5078089;28;20117;-79
2024/01/01 10:07:41;;;;;;;12.40;2.90;;;;;;;-143.54;100.00;59916.91;5073991;28;20028;-79
2024/01/01 10:10:07;;;;;;;12.32;3.10;;;;;;;-143.54;100.00;59916.91;5073312;28;20361;-80
2024/01/01 10:12:32;;;;;;;11.77;3.17;;;;;;;-143.54;100.00;59916.91;5075622;28;20069;-79
2024/01/01 10:14:58;;;;;;;11.60;3.22;;;;;;;-143.54;100.00;59916.91;5073066;28;20387;-79
2024/01/01 10:17:24;;;;;;;12.45;2.95;;;;;;;-143.54;100.00;59916.91;5081020;28;20548;-78
2024/01/01 10:19:51;;;;;;;15.20;2.72;;;;;;;-143.54;100.00;59916.91;5077679;28;20099;-78
2024/01/01 10:22:21;;;;;;;15.50;3.20;;;;;;;-143.54;100.00;59916.91;5070076;28;20122;-79
2024/01/01 10:24:52;;;;;;;15.02;3.85;;;;;;;-143.54;100.00;59916.91;5069605;28;20033;-79
2024/01/01 10:27:19;;;;;;;20.60;3.92;;;;;;;-143.54;100.00;59916.91;5070266;28;20052;-79
2024/01/01 10:29:48;;;;;;;11.77;3.10;;;;;;;-143.54;100.00;59916.91;5078091;28;20044;-79
2024/01/01 10:32:15;;;;;;;15.93;3.50;;;;;;;-143.54;100.00;59916.91;5076787;28;20377;-79
2024/01/01 10:34:41;;;;;;;12.88;4.03;;;;;;;-143.54;100.00;59916.91;5060843;28;20033;-79
2024/01/01 10:37:08;;;;;;;14.88;3.33;;;;;;;-143.54;100.00;59916.91;5072885;28;20089;-79
2024/01/01 10:39:36;;;;;;;17.88;4.53;;;;;;;-143.54;100.00;59916.91;5068667;28;20025;-79
2024/01/01 10:42:02;;;;;;;12.05;4.07;;;;;;;-143.54;100.00;59916.91;5065796;28;20036;-79
2024/01/01 10:44:28;;;;;;;17.25;3.85;;;;;;;-143.54;100.00;59916.91;5079955;28;20024;-79
2024/01/01 10:46:56;;;;;;;15.82;4.03;;;;;;;-143.54;100.00;59916.91;5068118;28;20021;-79
2024/01/01 10:49:27;;;;;;;16.58;3.78;;;;;;;-143.54;100.00;59916.91;5074083;28;20024;-79
2024/01/01 10:52:10;;;;;;;15.48;3.95;;;;;;;-143.54;100.00;59916.91;5075304;28;20027;-79
2024/01/01 10:55:17;;;;;;;19.98;3.75;;;;;;;-143.54;100.00;59916.91;5081990;28;20028;-79
2024/01/01 10:58:20;;;;;;;14.95;3.08;;;;;;;-143.54;100.00;59916.91;5078703;28;20028;-78